sensor_id;sensor_type;location;lat;lon;timestamp;P1;durP1;ratioP1;P2;durP2;ratioP2
3959;SDS011;1994;48.640;8.894;2023-06-24T00:02:10;4.10;;;3.80;;
3959;SDS011;1994;48.640;8.894;2023-06-24T00:04:36;4.60;;;4.20;;
3959;SDS011;1994;48.640;8.894;2023-06-24T00:07:02;4.07;;;3.77;;
3959;SDS011;1994;48.640;8.894;2023-06-24T00:09:28;3.93;;;3.60;;
3959;SDS011;1994;48.640;8.894;2023-06-24T00:11:55;4.60;;;4.10;;
3959;SDS011;1994;48.640;8.894;2023-06-24T00:14:24;6.00;;;4.10;;
3959;SDS011;1994;48.640;8.894;2023-06-24T00:16:54;5.17;;;4.67;;
3959;SDS011;1994;48.640;8.894;2023-06-24T00:19:21;4.97;;;4.50;;
3959;SDS011;1994;48.640;8.894;2023-06-24T00:21:50;3.77;;;3.40;;
3959;SDS011;1994;48.640;8.894;2023-06-24T00:24:17;3.67;;;3.37;;
3959;SDS011;1994;48.640;8.894;2023-06-24T00:26:50;3.90;;;3.60;;
3959;SDS011;1994;48.640;8.894;2023-06-24T00:29:18;4.97;;;4.07;;
3959;SDS011;1994;48.640;8.894;2023-06-24T00:31:44;4.37;;;4.07;;
3959;SDS011;1994;48.640;8.894;2023-06-24T00:34:10;3.80;;;3.50;;
3959;SDS011;1994;48.640;8.894;2023-06-24T00:36:36;3.83;;;3.40;;
3959;SDS011;1994;48.640;8.894;2023-06-24T00:39:02;7.43;;;4.33;;
3959;SDS011;1994;48.640;8.894;2023-06-24T00:41:32;11.03;;;4.53;;
3959;SDS011;1994;48.640;8.894;2023-06-24T00:43:59;7.47;;;4.30;;
3959;SDS011;1994;48.640;8.894;2023-06-24T00:46:27;4.73;;;4.30;;
3959;SDS011;1994;48.640;8.894;2023-06-24T00:48:56;5.40;;;4.70;;
3959;SDS011;1994;48.640;8.894;2023-06-24T00:51:22;4.63;;;4.23;;
3959;SDS011;1994;48.640;8.894;2023-06-24T00:53:54;4.30;;;3.87;;
3959;SDS011;1994;48.640;8.894;2023-06-24T00:56:31;5.07;;;4.57;;
3959;SDS011;1994;48.640;8.894;2023-06-24T00:59:03;5.13;;;4.50;;
3959;SDS011;1994;48.640;8.894;2023-06-24T01:01:32;6.00;;;5.40;;
3959;SDS011;1994;48.640;8.894;2023-06-24T01:04:00;5.70;;;4.23;;
3959;SDS011;1994;48.640;8.894;2023-06-24T01:06:28;4.83;;;4.43;;
3959;SDS011;1994;48.640;8.894;2023-06-24T01:08:57;4.33;;;4.03;;
3959;SDS011;1994;48.640;8.894;2023-06-24T01:11:26;4.70;;;4.30;;
3959;SDS011;1994;48.640;8.894;2023-06-24T01:13:52;3.93;;;3.63;;
3959;SDS011;1994;48.640;8.894;2023-06-24T01:17:05;4.37;;;4.07;;
3959;SDS011;1994;48.640;8.894;2023-06-24T01:28:46;4.60;;;4.20;;
3959;SDS011;1994;48.640;8.894;2023-06-24T01:31:51;4.70;;;4.30;;
3959;SDS011;1994;48.640;8.894;2023-06-24T01:37:12;4.40;;;4.00;;
3959;SDS011;1994;48.640;8.894;2023-06-24T01:42:21;5.00;;;4.60;;
3959;SDS011;1994;48.640;8.894;2023-06-24T01:44:48;4.03;;;3.73;;
3959;SDS011;1994;48.640;8.894;2023-06-24T01:47:22;4.43;;;4.13;;
3959;SDS011;1994;48.640;8.894;2023-06-24T01:49:51;4.30;;;3.90;;
3959;SDS011;1994;48.640;8.894;2023-06-24T01:52:20;4.07;;;3.77;;
3959;SDS011;1994;48.640;8.894;2023-06-24T01:54:48;3.50;;;3.30;;
3959;SDS011;1994;48.640;8.894;2023-06-24T01:57:17;5.10;;;4.60;;
3959;SDS011;1994;48.640;8.894;2023-06-24T01:59:45;7.03;;;3.80;;
3959;SDS011;1994;48.640;8.894;2023-06-24T02:02:13;4.07;;;3.67;;
3959;SDS011;1994;48.640;8.894;2023-06-24T02:04:39;4.67;;;4.13;;
3959;SDS011;1994;48.640;8.894;2023-06-24T02:07:07;3.90;;;3.50;;
3959;SDS011;1994;48.640;8.894;2023-06-24T02:09:34;3.67;;;3.37;;
3959;SDS011;1994;48.640;8.894;2023-06-24T02:12:01;4.80;;;4.40;;
3959;SDS011;1994;48.640;8.894;2023-06-24T02:14:28;4.23;;;3.83;;
3959;SDS011;1994;48.640;8.894;2023-06-24T02:16:56;4.97;;;4.37;;
3959;SDS011;1994;48.640;8.894;2023-06-24T02:19:27;6.97;;;4.70;;
3959;SDS011;1994;48.640;8.894;2023-06-24T02:21:56;5.87;;;4.50;;
3959;SDS011;1994;48.640;8.894;2023-06-24T02:24:26;6.93;;;4.57;;
3959;SDS011;1994;48.640;8.894;2023-06-24T02:26:54;7.10;;;4.57;;
3959;SDS011;1994;48.640;8.894;2023-06-24T02:29:24;4.50;;;4.10;;
3959;SDS011;1994;48.640;8.894;2023-06-24T02:31:52;5.23;;;3.90;;
3959;SDS011;1994;48.640;8.894;2023-06-24T02:34:19;6.20;;;4.03;;
3959;SDS011;1994;48.640;8.894;2023-06-24T02:36:45;6.10;;;3.90;;
3959;SDS011;1994;48.640;8.894;2023-06-24T02:39:11;5.47;;;4.57;;
3959;SDS011;1994;48.640;8.894;2023-06-24T02:41:36;5.63;;;4.60;;
3959;SDS011;1994;48.640;8.894;2023-06-24T02:44:02;5.03;;;4.47;;
3959;SDS011;1994;48.640;8.894;2023-06-24T02:46:28;4.60;;;4.27;;
3959;SDS011;1994;48.640;8.894;2023-06-24T02:48:56;7.70;;;5.00;;
3959;SDS011;1994;48.640;8.894;2023-06-24T02:51:24;5.37;;;4.47;;
3959;SDS011;1994;48.640;8.894;2023-06-24T02:53:51;4.60;;;4.20;;
3959;SDS011;1994;48.640;8.894;2023-06-24T02:56:17;4.17;;;3.87;;
3959;SDS011;1994;48.640;8.894;2023-06-24T02:58:45;4.00;;;3.67;;
3959;SDS011;1994;48.640;8.894;2023-06-24T03:01:12;6.60;;;4.17;;
3959;SDS011;1994;48.640;8.894;2023-06-24T03:03:40;5.23;;;4.73;;
3959;SDS011;1994;48.640;8.894;2023-06-24T03:06:07;4.73;;;4.27;;
3959;SDS011;1994;48.640;8.894;2023-06-24T03:08:37;4.17;;;3.80;;
3959;SDS011;1994;48.640;8.894;2023-06-24T03:11:04;4.80;;;3.70;;
3959;SDS011;1994;48.640;8.894;2023-06-24T03:13:30;4.97;;;4.57;;
3959;SDS011;1994;48.640;8.894;2023-06-24T03:15:55;6.90;;;4.73;;
3959;SDS011;1994;48.640;8.894;2023-06-24T03:18:21;5.37;;;4.87;;
3959;SDS011;1994;48.640;8.894;2023-06-24T03:20:47;4.73;;;4.33;;
3959;SDS011;1994;48.640;8.894;2023-06-24T03:23:13;5.57;;;5.07;;
3959;SDS011;1994;48.640;8.894;2023-06-24T03:25:38;4.60;;;4.30;;
3959;SDS011;1994;48.640;8.894;2023-06-24T03:28:04;3.83;;;3.53;;
3959;SDS011;1994;48.640;8.894;2023-06-24T03:30:32;5.43;;;4.13;;
3959;SDS011;1994;48.640;8.894;2023-06-24T03:32:58;4.33;;;3.93;;
3959;SDS011;1994;48.640;8.894;2023-06-24T03:35:24;5.17;;;4.67;;
3959;SDS011;1994;48.640;8.894;2023-06-24T03:37:49;10.23;;;4.50;;
3959;SDS011;1994;48.640;8.894;2023-06-24T03:40:15;4.03;;;3.63;;
3959;SDS011;1994;48.640;8.894;2023-06-24T03:42:42;5.87;;;4.80;;
3959;SDS011;1994;48.640;8.894;2023-06-24T03:45:08;5.03;;;4.53;;
3959;SDS011;1994;48.640;8.894;2023-06-24T03:47:34;4.57;;;4.07;;
3959;SDS011;1994;48.640;8.894;2023-06-24T03:49:59;5.10;;;4.60;;
3959;SDS011;1994;48.640;8.894;2023-06-24T03:52:25;4.80;;;4.30;;
3959;SDS011;1994;48.640;8.894;2023-06-24T03:54:51;6.87;;;4.20;;
3959;SDS011;1994;48.640;8.894;2023-06-24T03:57:18;7.77;;;4.93;;
3959;SDS011;1994;48.640;8.894;2023-06-24T03:59:43;5.57;;;4.20;;
3959;SDS011;1994;48.640;8.894;2023-06-24T04:02:09;4.60;;;4.20;;
3959;SDS011;1994;48.640;8.894;2023-06-24T04:04:35;5.10;;;4.63;;
3959;SDS011;1994;48.640;8.894;2023-06-24T04:07:01;4.50;;;4.20;;
3959;SDS011;1994;48.640;8.894;2023-06-24T04:09:31;5.10;;;4.60;;
3959;SDS011;1994;48.640;8.894;2023-06-24T04:11:59;7.53;;;5.13;;
3959;SDS011;1994;48.640;8.894;2023-06-24T04:14:24;6.13;;;4.83;;
3959;SDS011;1994;48.640;8.894;2023-06-24T04:16:50;5.53;;;5.03;;
3959;SDS011;1994;48.640;8.894;2023-06-24T04:19:16;5.33;;;4.83;;
3959;SDS011;1994;48.640;8.894;2023-06-24T04:21:41;5.50;;;4.97;;
3959;SDS011;1994;48.640;8.894;2023-06-24T04:24:07;6.00;;;5.40;;
3959;SDS011;1994;48.640;8.894;2023-06-24T04:26:33;5.90;;;5.10;;
3959;SDS011;1994;48.640;8.894;2023-06-24T04:28:59;5.83;;;5.17;;
3959;SDS011;1994;48.640;8.894;2023-06-24T04:31:24;5.47;;;5.00;;
3959;SDS011;1994;48.640;8.894;2023-06-24T04:33:51;6.70;;;4.90;;
3959;SDS011;1994;48.640;8.894;2023-06-24T04:36:17;5.63;;;5.20;;
3959;SDS011;1994;48.640;8.894;2023-06-24T04:38:42;11.83;;;5.17;;
3959;SDS011;1994;48.640;8.894;2023-06-24T04:41:08;5.57;;;5.07;;
3959;SDS011;1994;48.640;8.894;2023-06-24T04:43:34;6.90;;;5.60;;
3959;SDS011;1994;48.640;8.894;2023-06-24T04:46:00;6.07;;;5.47;;
3959;SDS011;1994;48.640;8.894;2023-06-24T04:48:26;7.13;;;5.50;;
3959;SDS011;1994;48.640;8.894;2023-06-24T04:50:52;5.90;;;5.40;;
3959;SDS011;1994;48.640;8.894;2023-06-24T04:53:20;6.23;;;5.00;;
3959;SDS011;1994;48.640;8.894;2023-06-24T04:55:46;6.00;;;5.40;;
3959;SDS011;1994;48.640;8.894;2023-06-24T04:58:12;6.00;;;5.50;;
3959;SDS011;1994;48.640;8.894;2023-06-24T05:00:38;5.70;;;5.20;;
3959;SDS011;1994;48.640;8.894;2023-06-24T05:03:03;5.93;;;5.37;;
3959;SDS011;1994;48.640;8.894;2023-06-24T05:05:29;9.33;;;5.53;;
3959;SDS011;1994;48.640;8.894;2023-06-24T05:07:55;5.80;;;5.33;;
3959;SDS011;1994;48.640;8.894;2023-06-24T05:10:21;8.87;;;5.43;;
3959;SDS011;1994;48.640;8.894;2023-06-24T05:12:46;7.20;;;5.60;;
3959;SDS011;1994;48.640;8.894;2023-06-24T05:15:12;6.10;;;4.90;;
3959;SDS011;1994;48.640;8.894;2023-06-24T05:17:38;5.73;;;5.00;;
3959;SDS011;1994;48.640;8.894;2023-06-24T05:20:05;7.07;;;6.37;;
3959;SDS011;1994;48.640;8.894;2023-06-24T05:22:31;6.00;;;5.40;;
3959;SDS011;1994;48.640;8.894;2023-06-24T05:24:57;6.60;;;5.10;;
3959;SDS011;1994;48.640;8.894;2023-06-24T05:27:23;5.83;;;5.33;;
3959;SDS011;1994;48.640;8.894;2023-06-24T05:29:49;9.33;;;4.97;;
3959;SDS011;1994;48.640;8.894;2023-06-24T05:32:14;7.47;;;6.57;;
3959;SDS011;1994;48.640;8.894;2023-06-24T05:34:42;6.30;;;5.20;;
3959;SDS011;1994;48.640;8.894;2023-06-24T05:37:08;5.43;;;4.97;;
3959;SDS011;1994;48.640;8.894;2023-06-24T05:39:34;4.90;;;4.40;;
3959;SDS011;1994;48.640;8.894;2023-06-24T05:41:59;6.77;;;5.50;;
3959;SDS011;1994;48.640;8.894;2023-06-24T05:44:25;4.83;;;4.43;;
3959;SDS011;1994;48.640;8.894;2023-06-24T05:46:51;5.33;;;4.83;;
3959;SDS011;1994;48.640;8.894;2023-06-24T05:49:16;5.50;;;4.30;;
3959;SDS011;1994;48.640;8.894;2023-06-24T05:51:42;6.67;;;5.33;;
3959;SDS011;1994;48.640;8.894;2023-06-24T05:54:08;6.30;;;4.90;;
3959;SDS011;1994;48.640;8.894;2023-06-24T05:56:34;6.83;;;5.27;;
3959;SDS011;1994;48.640;8.894;2023-06-24T05:59:01;6.00;;;5.20;;
3959;SDS011;1994;48.640;8.894;2023-06-24T06:01:27;5.07;;;4.50;;
3959;SDS011;1994;48.640;8.894;2023-06-24T06:03:53;5.23;;;4.83;;
3959;SDS011;1994;48.640;8.894;2023-06-24T06:06:19;4.73;;;4.23;;
3959;SDS011;1994;48.640;8.894;2023-06-24T06:08:44;5.60;;;5.10;;
3959;SDS011;1994;48.640;8.894;2023-06-24T06:11:10;5.10;;;4.60;;
3959;SDS011;1994;48.640;8.894;2023-06-24T06:13:36;5.33;;;4.83;;
3959;SDS011;1994;48.640;8.894;2023-06-24T06:16:01;6.70;;;5.30;;
3959;SDS011;1994;48.640;8.894;2023-06-24T06:18:27;5.97;;;5.10;;
3959;SDS011;1994;48.640;8.894;2023-06-24T06:20:53;5.50;;;4.67;;
3959;SDS011;1994;48.640;8.894;2023-06-24T06:23:19;5.50;;;5.00;;
3959;SDS011;1994;48.640;8.894;2023-06-24T06:25:45;4.43;;;4.13;;
3959;SDS011;1994;48.640;8.894;2023-06-24T06:28:11;4.80;;;4.30;;
3959;SDS011;1994;48.640;8.894;2023-06-24T06:30:37;3.67;;;3.37;;
3959;SDS011;1994;48.640;8.894;2023-06-24T06:33:03;4.60;;;4.20;;
3959;SDS011;1994;48.640;8.894;2023-06-24T06:35:29;4.53;;;4.03;;
3959;SDS011;1994;48.640;8.894;2023-06-24T06:37:56;4.90;;;4.23;;
3959;SDS011;1994;48.640;8.894;2023-06-24T06:40:23;3.90;;;3.50;;
3959;SDS011;1994;48.640;8.894;2023-06-24T06:42:49;4.40;;;4.00;;
3959;SDS011;1994;48.640;8.894;2023-06-24T06:45:15;4.30;;;3.70;;
3959;SDS011;1994;48.640;8.894;2023-06-24T06:47:41;3.43;;;3.23;;
3959;SDS011;1994;48.640;8.894;2023-06-24T06:50:06;2.90;;;2.70;;
3959;SDS011;1994;48.640;8.894;2023-06-24T06:52:33;3.63;;;3.37;;
3959;SDS011;1994;48.640;8.894;2023-06-24T06:54:59;8.73;;;3.57;;
3959;SDS011;1994;48.640;8.894;2023-06-24T06:57:24;4.10;;;3.80;;
3959;SDS011;1994;48.640;8.894;2023-06-24T06:59:50;5.43;;;3.03;;
3959;SDS011;1994;48.640;8.894;2023-06-24T07:02:16;3.70;;;3.40;;
3959;SDS011;1994;48.640;8.894;2023-06-24T07:04:43;3.57;;;3.30;;
3959;SDS011;1994;48.640;8.894;2023-06-24T07:07:09;3.83;;;3.53;;
3959;SDS011;1994;48.640;8.894;2023-06-24T07:09:36;3.90;;;3.60;;
3959;SDS011;1994;48.640;8.894;2023-06-24T07:12:02;3.23;;;2.93;;
3959;SDS011;1994;48.640;8.894;2023-06-24T07:14:28;4.00;;;3.27;;
3959;SDS011;1994;48.640;8.894;2023-06-24T07:16:54;3.30;;;3.00;;
3959;SDS011;1994;48.640;8.894;2023-06-24T07:19:20;4.97;;;3.70;;
3959;SDS011;1994;48.640;8.894;2023-06-24T07:21:45;3.37;;;3.07;;
3959;SDS011;1994;48.640;8.894;2023-06-24T07:24:11;7.40;;;3.10;;
3959;SDS011;1994;48.640;8.894;2023-06-24T07:26:37;3.40;;;3.10;;
3959;SDS011;1994;48.640;8.894;2023-06-24T07:29:05;3.57;;;3.03;;
3959;SDS011;1994;48.640;8.894;2023-06-24T07:31:32;3.03;;;2.83;;
3959;SDS011;1994;48.640;8.894;2023-06-24T07:33:58;3.47;;;3.10;;
3959;SDS011;1994;48.640;8.894;2023-06-24T07:36:24;3.67;;;3.37;;
3959;SDS011;1994;48.640;8.894;2023-06-24T07:38:49;3.00;;;2.80;;
3959;SDS011;1994;48.640;8.894;2023-06-24T07:41:15;2.87;;;2.57;;
3959;SDS011;1994;48.640;8.894;2023-06-24T07:43:41;2.53;;;2.33;;
3959;SDS011;1994;48.640;8.894;2023-06-24T07:46:07;2.60;;;2.40;;
3959;SDS011;1994;48.640;8.894;2023-06-24T07:48:32;3.27;;;2.97;;
3959;SDS011;1994;48.640;8.894;2023-06-24T07:50:58;3.47;;;3.27;;
3959;SDS011;1994;48.640;8.894;2023-06-24T07:53:24;2.93;;;2.60;;
3959;SDS011;1994;48.640;8.894;2023-06-24T07:55:49;3.03;;;2.77;;
3959;SDS011;1994;48.640;8.894;2023-06-24T07:58:15;3.07;;;2.77;;
3959;SDS011;1994;48.640;8.894;2023-06-24T08:00:41;5.23;;;3.63;;
3959;SDS011;1994;48.640;8.894;2023-06-24T08:03:07;3.03;;;2.73;;
3959;SDS011;1994;48.640;8.894;2023-06-24T08:05:33;4.33;;;3.40;;
3959;SDS011;1994;48.640;8.894;2023-06-24T08:07:59;9.63;;;3.37;;
3959;SDS011;1994;48.640;8.894;2023-06-24T08:10:24;3.10;;;2.90;;
3959;SDS011;1994;48.640;8.894;2023-06-24T08:12:50;2.70;;;2.50;;
3959;SDS011;1994;48.640;8.894;2023-06-24T08:15:16;2.93;;;2.63;;
3959;SDS011;1994;48.640;8.894;2023-06-24T08:17:42;4.03;;;2.90;;
3959;SDS011;1994;48.640;8.894;2023-06-24T08:20:08;3.23;;;3.00;;
3959;SDS011;1994;48.640;8.894;2023-06-24T08:22:34;2.53;;;2.43;;
3959;SDS011;1994;48.640;8.894;2023-06-24T08:25:00;3.00;;;2.80;;
3959;SDS011;1994;48.640;8.894;2023-06-24T08:27:26;2.60;;;2.40;;
3959;SDS011;1994;48.640;8.894;2023-06-24T08:29:51;3.63;;;3.27;;
3959;SDS011;1994;48.640;8.894;2023-06-24T08:32:17;2.60;;;2.40;;
3959;SDS011;1994;48.640;8.894;2023-06-24T08:34:43;3.60;;;3.30;;
3959;SDS011;1994;48.640;8.894;2023-06-24T08:37:08;3.60;;;3.30;;
3959;SDS011;1994;48.640;8.894;2023-06-24T08:39:34;3.13;;;2.93;;
3959;SDS011;1994;48.640;8.894;2023-06-24T08:42:01;2.90;;;2.70;;
3959;SDS011;1994;48.640;8.894;2023-06-24T08:44:27;3.43;;;3.20;;
3959;SDS011;1994;48.640;8.894;2023-06-24T08:46:53;3.07;;;2.87;;
3959;SDS011;1994;48.640;8.894;2023-06-24T08:51:59;3.20;;;3.00;;
3959;SDS011;1994;48.640;8.894;2023-06-24T08:54:36;2.83;;;2.70;;
3959;SDS011;1994;48.640;8.894;2023-06-24T08:57:03;3.03;;;2.83;;
3959;SDS011;1994;48.640;8.894;2023-06-24T08:59:31;2.83;;;2.63;;
3959;SDS011;1994;48.640;8.894;2023-06-24T09:01:58;3.00;;;2.80;;
3959;SDS011;1994;48.640;8.894;2023-06-24T09:04:24;3.33;;;3.03;;
3959;SDS011;1994;48.640;8.894;2023-06-24T09:06:50;2.37;;;2.27;;
3959;SDS011;1994;48.640;8.894;2023-06-24T09:09:19;2.67;;;2.57;;
3959;SDS011;1994;48.640;8.894;2023-06-24T09:11:52;3.23;;;2.93;;
3959;SDS011;1994;48.640;8.894;2023-06-24T09:14:26;2.53;;;2.43;;
3959;SDS011;1994;48.640;8.894;2023-06-24T09:16:58;2.70;;;2.50;;
3959;SDS011;1994;48.640;8.894;2023-06-24T09:19:27;3.17;;;2.80;;
3959;SDS011;1994;48.640;8.894;2023-06-24T09:21:54;2.80;;;2.53;;
3959;SDS011;1994;48.640;8.894;2023-06-24T09:24:35;2.47;;;2.27;;
3959;SDS011;1994;48.640;8.894;2023-06-24T09:27:02;2.50;;;2.30;;
3959;SDS011;1994;48.640;8.894;2023-06-24T09:29:31;2.90;;;2.70;;
3959;SDS011;1994;48.640;8.894;2023-06-24T09:31:59;2.77;;;2.60;;
3959;SDS011;1994;48.640;8.894;2023-06-24T09:34:28;2.33;;;2.13;;
3959;SDS011;1994;48.640;8.894;2023-06-24T09:36:55;2.93;;;2.70;;
3959;SDS011;1994;48.640;8.894;2023-06-24T09:39:23;3.13;;;2.67;;
3959;SDS011;1994;48.640;8.894;2023-06-24T09:41:58;3.70;;;2.37;;
3959;SDS011;1994;48.640;8.894;2023-06-24T09:44:26;3.00;;;2.80;;
3959;SDS011;1994;48.640;8.894;2023-06-24T09:46:53;3.10;;;2.90;;
3959;SDS011;1994;48.640;8.894;2023-06-24T09:49:23;2.57;;;2.37;;
3959;SDS011;1994;48.640;8.894;2023-06-24T09:51:49;3.80;;;3.60;;
3959;SDS011;1994;48.640;8.894;2023-06-24T09:54:23;2.93;;;2.73;;
3959;SDS011;1994;48.640;8.894;2023-06-24T09:56:53;2.80;;;2.60;;
3959;SDS011;1994;48.640;8.894;2023-06-24T09:59:22;2.77;;;2.57;;
3959;SDS011;1994;48.640;8.894;2023-06-24T10:01:51;3.00;;;2.70;;
3959;SDS011;1994;48.640;8.894;2023-06-24T10:04:20;2.93;;;2.63;;
3959;SDS011;1994;48.640;8.894;2023-06-24T10:06:47;2.90;;;2.40;;
3959;SDS011;1994;48.640;8.894;2023-06-24T10:09:13;2.77;;;2.57;;
3959;SDS011;1994;48.640;8.894;2023-06-24T10:11:42;2.80;;;2.60;;
3959;SDS011;1994;48.640;8.894;2023-06-24T10:14:12;3.00;;;2.80;;
3959;SDS011;1994;48.640;8.894;2023-06-24T10:16:40;3.13;;;2.93;;
3959;SDS011;1994;48.640;8.894;2023-06-24T10:19:07;2.93;;;2.73;;
3959;SDS011;1994;48.640;8.894;2023-06-24T10:21:45;3.67;;;2.57;;
3959;SDS011;1994;48.640;8.894;2023-06-24T10:24:29;4.23;;;2.67;;
3959;SDS011;1994;48.640;8.894;2023-06-24T10:27:04;3.23;;;3.00;;
3959;SDS011;1994;48.640;8.894;2023-06-24T10:29:37;2.63;;;2.43;;
3959;SDS011;1994;48.640;8.894;2023-06-24T10:32:06;4.60;;;3.53;;
3959;SDS011;1994;48.640;8.894;2023-06-24T10:34:34;2.83;;;2.63;;
3959;SDS011;1994;48.640;8.894;2023-06-24T10:37:22;2.90;;;2.70;;
3959;SDS011;1994;48.640;8.894;2023-06-24T10:39:51;2.60;;;2.50;;
3959;SDS011;1994;48.640;8.894;2023-06-24T10:42:36;2.80;;;2.60;;
3959;SDS011;1994;48.640;8.894;2023-06-24T10:47:34;2.60;;;2.40;;
3959;SDS011;1994;48.640;8.894;2023-06-24T10:50:02;3.57;;;2.57;;
3959;SDS011;1994;48.640;8.894;2023-06-24T10:52:28;3.07;;;2.77;;
3959;SDS011;1994;48.640;8.894;2023-06-24T10:54:56;3.90;;;2.60;;
3959;SDS011;1994;48.640;8.894;2023-06-24T10:57:26;2.00;;;1.90;;
3959;SDS011;1994;48.640;8.894;2023-06-24T10:59:56;3.00;;;2.80;;
3959;SDS011;1994;48.640;8.894;2023-06-24T11:02:23;2.40;;;2.30;;
3959;SDS011;1994;48.640;8.894;2023-06-24T11:04:51;2.53;;;2.33;;
3959;SDS011;1994;48.640;8.894;2023-06-24T11:07:23;2.90;;;2.70;;
3959;SDS011;1994;48.640;8.894;2023-06-24T11:09:52;3.70;;;2.50;;
3959;SDS011;1994;48.640;8.894;2023-06-24T11:12:33;3.10;;;2.90;;
3959;SDS011;1994;48.640;8.894;2023-06-24T11:15:01;2.60;;;2.40;;
3959;SDS011;1994;48.640;8.894;2023-06-24T11:17:35;3.20;;;2.33;;
3959;SDS011;1994;48.640;8.894;2023-06-24T11:20:04;2.73;;;2.53;;
3959;SDS011;1994;48.640;8.894;2023-06-24T11:22:37;2.80;;;2.60;;
3959;SDS011;1994;48.640;8.894;2023-06-24T11:25:04;3.03;;;2.83;;
3959;SDS011;1994;48.640;8.894;2023-06-24T11:27:30;3.30;;;2.60;;
3959;SDS011;1994;48.640;8.894;2023-06-24T11:29:57;2.77;;;2.57;;
3959;SDS011;1994;48.640;8.894;2023-06-24T11:32:39;3.53;;;2.70;;
3959;SDS011;1994;48.640;8.894;2023-06-24T11:35:09;4.53;;;2.73;;
3959;SDS011;1994;48.640;8.894;2023-06-24T11:37:37;3.00;;;2.33;;
3959;SDS011;1994;48.640;8.894;2023-06-24T11:40:07;2.97;;;2.77;;
3959;SDS011;1994;48.640;8.894;2023-06-24T11:42:38;2.43;;;2.33;;
3959;SDS011;1994;48.640;8.894;2023-06-24T11:45:09;2.60;;;2.40;;
3959;SDS011;1994;48.640;8.894;2023-06-24T11:47:37;2.97;;;2.77;;
3959;SDS011;1994;48.640;8.894;2023-06-24T11:50:06;2.67;;;2.47;;
3959;SDS011;1994;48.640;8.894;2023-06-24T11:55:23;2.53;;;2.33;;
3959;SDS011;1994;48.640;8.894;2023-06-24T12:00:19;2.47;;;2.37;;
3959;SDS011;1994;48.640;8.894;2023-06-24T12:02:51;2.17;;;2.07;;
3959;SDS011;1994;48.640;8.894;2023-06-24T12:05:31;2.87;;;2.67;;
3959;SDS011;1994;48.640;8.894;2023-06-24T12:08:01;2.67;;;2.57;;
3959;SDS011;1994;48.640;8.894;2023-06-24T12:10:37;3.60;;;3.20;;
3959;SDS011;1994;48.640;8.894;2023-06-24T12:13:04;5.63;;;3.20;;
3959;SDS011;1994;48.640;8.894;2023-06-24T12:15:31;3.83;;;2.63;;
3959;SDS011;1994;48.640;8.894;2023-06-24T12:17:57;3.13;;;2.47;;
3959;SDS011;1994;48.640;8.894;2023-06-24T12:20:24;3.20;;;3.00;;
3959;SDS011;1994;48.640;8.894;2023-06-24T12:22:50;3.07;;;2.77;;
3959;SDS011;1994;48.640;8.894;2023-06-24T12:25:16;2.87;;;2.57;;
3959;SDS011;1994;48.640;8.894;2023-06-24T12:27:43;2.60;;;2.50;;
3959;SDS011;1994;48.640;8.894;2023-06-24T12:30:10;2.67;;;2.47;;
3959;SDS011;1994;48.640;8.894;2023-06-24T12:32:37;3.37;;;3.10;;
3959;SDS011;1994;48.640;8.894;2023-06-24T12:35:03;2.70;;;2.60;;
3959;SDS011;1994;48.640;8.894;2023-06-24T12:37:33;3.13;;;2.10;;
3959;SDS011;1994;48.640;8.894;2023-06-24T12:40:00;2.53;;;2.43;;
3959;SDS011;1994;48.640;8.894;2023-06-24T12:42:26;3.37;;;2.67;;
3959;SDS011;1994;48.640;8.894;2023-06-24T12:44:52;2.93;;;2.67;;
3959;SDS011;1994;48.640;8.894;2023-06-24T12:47:19;3.20;;;2.33;;
3959;SDS011;1994;48.640;8.894;2023-06-24T12:49:45;2.43;;;2.23;;
3959;SDS011;1994;48.640;8.894;2023-06-24T12:52:12;2.73;;;2.20;;
3959;SDS011;1994;48.640;8.894;2023-06-24T12:54:38;2.37;;;2.27;;
3959;SDS011;1994;48.640;8.894;2023-06-24T12:57:04;3.50;;;2.30;;
3959;SDS011;1994;48.640;8.894;2023-06-24T12:59:30;3.60;;;2.53;;
3959;SDS011;1994;48.640;8.894;2023-06-24T13:01:56;3.00;;;2.80;;
3959;SDS011;1994;48.640;8.894;2023-06-24T13:04:22;2.53;;;2.43;;
3959;SDS011;1994;48.640;8.894;2023-06-24T13:06:49;2.00;;;1.90;;
3959;SDS011;1994;48.640;8.894;2023-06-24T13:09:18;2.17;;;2.07;;
3959;SDS011;1994;48.640;8.894;2023-06-24T13:11:44;2.90;;;2.70;;
3959;SDS011;1994;48.640;8.894;2023-06-24T13:14:11;2.43;;;2.33;;
3959;SDS011;1994;48.640;8.894;2023-06-24T13:16:38;2.40;;;2.30;;
3959;SDS011;1994;48.640;8.894;2023-06-24T13:19:04;3.00;;;2.70;;
3959;SDS011;1994;48.640;8.894;2023-06-24T13:21:30;2.40;;;2.30;;
3959;SDS011;1994;48.640;8.894;2023-06-24T13:23:56;2.87;;;2.67;;
3959;SDS011;1994;48.640;8.894;2023-06-24T13:26:21;2.30;;;2.20;;
3959;SDS011;1994;48.640;8.894;2023-06-24T13:28:47;2.47;;;2.33;;
3959;SDS011;1994;48.640;8.894;2023-06-24T13:31:14;1.93;;;1.83;;
3959;SDS011;1994;48.640;8.894;2023-06-24T13:33:40;2.50;;;2.37;;
3959;SDS011;1994;48.640;8.894;2023-06-24T13:36:06;6.50;;;2.00;;
3959;SDS011;1994;48.640;8.894;2023-06-24T13:38:36;2.57;;;2.37;;
3959;SDS011;1994;48.640;8.894;2023-06-24T13:41:02;4.40;;;2.00;;
3959;SDS011;1994;48.640;8.894;2023-06-24T13:43:28;2.30;;;2.10;;
3959;SDS011;1994;48.640;8.894;2023-06-24T13:45:54;2.30;;;2.10;;
3959;SDS011;1994;48.640;8.894;2023-06-24T13:48:19;6.23;;;2.30;;
3959;SDS011;1994;48.640;8.894;2023-06-24T13:50:45;2.97;;;2.57;;
3959;SDS011;1994;48.640;8.894;2023-06-24T13:53:11;2.40;;;2.20;;
3959;SDS011;1994;48.640;8.894;2023-06-24T13:55:36;2.47;;;2.30;;
3959;SDS011;1994;48.640;8.894;2023-06-24T13:58:02;2.30;;;2.20;;
3959;SDS011;1994;48.640;8.894;2023-06-24T14:00:28;2.57;;;2.37;;
3959;SDS011;1994;48.640;8.894;2023-06-24T14:02:54;2.17;;;2.07;;
3959;SDS011;1994;48.640;8.894;2023-06-24T14:05:20;2.63;;;2.43;;
3959;SDS011;1994;48.640;8.894;2023-06-24T14:07:45;2.70;;;2.10;;
3959;SDS011;1994;48.640;8.894;2023-06-24T14:10:11;2.50;;;2.40;;
3959;SDS011;1994;48.640;8.894;2023-06-24T14:12:37;2.83;;;2.30;;
3959;SDS011;1994;48.640;8.894;2023-06-24T14:15:04;2.43;;;2.33;;
3959;SDS011;1994;48.640;8.894;2023-06-24T14:17:30;2.93;;;2.73;;
3959;SDS011;1994;48.640;8.894;2023-06-24T14:19:56;2.57;;;2.40;;
3959;SDS011;1994;48.640;8.894;2023-06-24T14:22:21;2.97;;;2.60;;
3959;SDS011;1994;48.640;8.894;2023-06-24T14:24:48;2.07;;;1.97;;
3959;SDS011;1994;48.640;8.894;2023-06-24T14:27:13;2.47;;;2.30;;
3959;SDS011;1994;48.640;8.894;2023-06-24T14:29:39;2.60;;;2.50;;
3959;SDS011;1994;48.640;8.894;2023-06-24T14:32:05;5.90;;;2.47;;
3959;SDS011;1994;48.640;8.894;2023-06-24T14:34:31;3.10;;;2.90;;
3959;SDS011;1994;48.640;8.894;2023-06-24T14:36:57;2.40;;;2.13;;
3959;SDS011;1994;48.640;8.894;2023-06-24T14:39:23;2.10;;;2.00;;
3959;SDS011;1994;48.640;8.894;2023-06-24T14:41:49;2.50;;;2.40;;
3959;SDS011;1994;48.640;8.894;2023-06-24T14:44:15;2.77;;;2.57;;
3959;SDS011;1994;48.640;8.894;2023-06-24T14:46:40;2.77;;;2.57;;
3959;SDS011;1994;48.640;8.894;2023-06-24T14:49:06;7.77;;;2.73;;
3959;SDS011;1994;48.640;8.894;2023-06-24T14:51:32;2.90;;;2.60;;
3959;SDS011;1994;48.640;8.894;2023-06-24T14:53:58;2.60;;;2.47;;
3959;SDS011;1994;48.640;8.894;2023-06-24T14:56:23;2.77;;;2.57;;
3959;SDS011;1994;48.640;8.894;2023-06-24T14:58:50;2.37;;;2.27;;
3959;SDS011;1994;48.640;8.894;2023-06-24T15:01:16;2.70;;;2.50;;
3959;SDS011;1994;48.640;8.894;2023-06-24T15:03:42;2.00;;;1.90;;
3959;SDS011;1994;48.640;8.894;2023-06-24T15:06:07;3.03;;;2.73;;
3959;SDS011;1994;48.640;8.894;2023-06-24T15:08:33;2.83;;;2.60;;
3959;SDS011;1994;48.640;8.894;2023-06-24T15:10:59;2.43;;;2.33;;
3959;SDS011;1994;48.640;8.894;2023-06-24T15:13:24;2.97;;;2.77;;
3959;SDS011;1994;48.640;8.894;2023-06-24T15:15:50;2.70;;;2.50;;
3959;SDS011;1994;48.640;8.894;2023-06-24T15:18:20;4.50;;;2.93;;
3959;SDS011;1994;48.640;8.894;2023-06-24T15:20:46;2.73;;;2.53;;
3959;SDS011;1994;48.640;8.894;2023-06-24T15:23:12;2.60;;;2.40;;
3959;SDS011;1994;48.640;8.894;2023-06-24T15:25:38;3.23;;;3.03;;
3959;SDS011;1994;48.640;8.894;2023-06-24T15:28:03;2.33;;;2.23;;
3959;SDS011;1994;48.640;8.894;2023-06-24T15:30:29;3.50;;;3.20;;
3959;SDS011;1994;48.640;8.894;2023-06-24T15:32:55;2.80;;;2.60;;
3959;SDS011;1994;48.640;8.894;2023-06-24T15:35:20;3.30;;;3.10;;
3959;SDS011;1994;48.640;8.894;2023-06-24T15:37:46;3.03;;;2.83;;
3959;SDS011;1994;48.640;8.894;2023-06-24T15:40:12;3.60;;;3.30;;
3959;SDS011;1994;48.640;8.894;2023-06-24T15:42:38;2.97;;;2.77;;